sensor_id;sensor_type;location;lat;lon;timestamp;P1;durP1;ratioP1;P2;durP2;ratioP2
19589;SDS011;12231;42.782;23.388;2022-09-12T00:00:25;6.95;;;5.70;;
19589;SDS011;12231;42.782;23.388;2022-09-12T00:02:51;5.65;;;4.97;;
19589;SDS011;12231;42.782;23.388;2022-09-12T00:05:17;5.43;;;4.90;;
19589;SDS011;12231;42.782;23.388;2022-09-12T00:07:43;6.72;;;5.07;;
19589;SDS011;12231;42.782;23.388;2022-09-12T00:10:08;5.07;;;4.53;;
19589;SDS011;12231;42.782;23.388;2022-09-12T00:12:34;5.32;;;4.82;;
19589;SDS011;12231;42.782;23.388;2022-09-12T00:14:59;4.93;;;4.53;;
19589;SDS011;12231;42.782;23.388;2022-09-12T00:17:24;5.57;;;5.07;;
19589;SDS011;12231;42.782;23.388;2022-09-12T00:19:50;6.03;;;4.90;;
19589;SDS011;12231;42.782;23.388;2022-09-12T00:22:16;5.20;;;4.63;;
19589;SDS011;12231;42.782;23.388;2022-09-12T00:24:41;5.40;;;4.90;;
19589;SDS011;12231;42.782;23.388;2022-09-12T00:27:08;5.63;;;4.95;;
19589;SDS011;12231;42.782;23.388;2022-09-12T00:29:33;5.50;;;5.03;;
19589;SDS011;12231;42.782;23.388;2022-09-12T00:31:59;5.53;;;4.97;;
19589;SDS011;12231;42.782;23.388;2022-09-12T00:34:24;5.32;;;4.82;;
19589;SDS011;12231;42.782;23.388;2022-09-12T00:36:49;4.75;;;4.32;;
19589;SDS011;12231;42.782;23.388;2022-09-12T00:39:15;4.70;;;4.30;;
19589;SDS011;12231;42.782;23.388;2022-09-12T00:41:41;4.55;;;4.13;;
19589;SDS011;12231;42.782;23.388;2022-09-12T00:46:38;4.45;;;3.95;;
19589;SDS011;12231;42.782;23.388;2022-09-12T00:52:03;4.28;;;3.88;;
19589;SDS011;12231;42.782;23.388;2022-09-12T00:54:31;4.07;;;3.78;;
19589;SDS011;12231;42.782;23.388;2022-09-12T00:57:03;3.55;;;3.25;;
19589;SDS011;12231;42.782;23.388;2022-09-12T00:59:37;4.38;;;3.67;;
19589;SDS011;12231;42.782;23.388;2022-09-12T01:02:06;4.13;;;3.67;;
19589;SDS011;12231;42.782;23.388;2022-09-12T01:04:32;3.45;;;3.15;;
19589;SDS011;12231;42.782;23.388;2022-09-12T01:07:01;4.00;;;3.67;;
19589;SDS011;12231;42.782;23.388;2022-09-12T01:09:29;3.63;;;3.30;;
19589;SDS011;12231;42.782;23.388;2022-09-12T01:11:54;6.28;;;3.85;;
19589;SDS011;12231;42.782;23.388;2022-09-12T01:14:21;3.63;;;3.30;;
19589;SDS011;12231;42.782;23.388;2022-09-12T01:16:47;6.70;;;3.50;;
19589;SDS011;12231;42.782;23.388;2022-09-12T01:28:13;3.72;;;3.33;;
19589;SDS011;12231;42.782;23.388;2022-09-12T01:34:22;3.58;;;3.17;;
19589;SDS011;12231;42.782;23.388;2022-09-12T01:37:34;3.40;;;3.10;;
19589;SDS011;12231;42.782;23.388;2022-09-12T01:40:22;4.93;;;3.40;;
19589;SDS011;12231;42.782;23.388;2022-09-12T01:42:53;3.67;;;3.38;;
19589;SDS011;12231;42.782;23.388;2022-09-12T01:45:44;3.70;;;3.40;;
19589;SDS011;12231;42.782;23.388;2022-09-12T01:48:54;5.07;;;3.42;;
19589;SDS011;12231;42.782;23.388;2022-09-12T01:51:50;4.45;;;3.28;;
19589;SDS011;12231;42.782;23.388;2022-09-12T01:57:19;3.28;;;2.97;;
19589;SDS011;12231;42.782;23.388;2022-09-12T01:59:52;3.90;;;3.20;;
19589;SDS011;12231;42.782;23.388;2022-09-12T02:02:24;3.47;;;3.28;;
19589;SDS011;12231;42.782;23.388;2022-09-12T02:10:33;3.58;;;3.17;;
19589;SDS011;12231;42.782;23.388;2022-09-12T02:13:22;3.47;;;2.80;;
19589;SDS011;12231;42.782;23.388;2022-09-12T02:15:55;3.28;;;2.97;;
19589;SDS011;12231;42.782;23.388;2022-09-12T02:18:27;3.10;;;2.90;;
19589;SDS011;12231;42.782;23.388;2022-09-12T02:20:56;6.80;;;3.63;;
19589;SDS011;12231;42.782;23.388;2022-09-12T02:23:25;3.63;;;3.20;;
19589;SDS011;12231;42.782;23.388;2022-09-12T02:25:54;4.88;;;3.35;;
19589;SDS011;12231;42.782;23.388;2022-09-12T02:28:56;3.75;;;3.40;;
19589;SDS011;12231;42.782;23.388;2022-09-12T02:39:53;4.30;;;3.75;;
19589;SDS011;12231;42.782;23.388;2022-09-12T02:42:20;3.67;;;3.38;;
19589;SDS011;12231;42.782;23.388;2022-09-12T02:44:46;3.25;;;2.95;;
19589;SDS011;12231;42.782;23.388;2022-09-12T02:47:19;3.33;;;3.00;;
19589;SDS011;12231;42.782;23.388;2022-09-12T02:49:51;3.38;;;2.97;;
19589;SDS011;12231;42.782;23.388;2022-09-12T02:52:18;4.47;;;3.40;;
19589;SDS011;12231;42.782;23.388;2022-09-12T02:54:44;3.28;;;2.97;;
19589;SDS011;12231;42.782;23.388;2022-09-12T02:57:16;5.18;;;3.40;;
19589;SDS011;12231;42.782;23.388;2022-09-12T02:59:43;3.70;;;3.15;;
19589;SDS011;12231;42.782;23.388;2022-09-12T03:10:36;3.47;;;2.97;;
19589;SDS011;12231;42.782;23.388;2022-09-12T03:27:58;3.63;;;3.10;;
19589;SDS011;12231;42.782;23.388;2022-09-12T03:30:36;4.00;;;3.70;;
19589;SDS011;12231;42.782;23.388;2022-09-12T03:33:10;3.50;;;3.20;;
19589;SDS011;12231;42.782;23.388;2022-09-12T03:35:36;3.25;;;2.97;;
19589;SDS011;12231;42.782;23.388;2022-09-12T03:38:02;5.00;;;4.05;;
19589;SDS011;12231;42.782;23.388;2022-09-12T03:40:29;3.80;;;3.08;;
19589;SDS011;12231;42.782;23.388;2022-09-12T03:42:54;3.50;;;3.20;;
19589;SDS011;12231;42.782;23.388;2022-09-12T03:45:19;3.75;;;3.42;;
19589;SDS011;12231;42.782;23.388;2022-09-12T03:47:45;4.35;;;3.95;;
19589;SDS011;12231;42.782;23.388;2022-09-12T03:50:10;4.20;;;3.80;;
19589;SDS011;12231;42.782;23.388;2022-09-12T03:52:36;3.78;;;3.38;;
19589;SDS011;12231;42.782;23.388;2022-09-12T03:55:01;4.75;;;3.95;;
19589;SDS011;12231;42.782;23.388;2022-09-12T03:57:27;4.18;;;3.70;;
19589;SDS011;12231;42.782;23.388;2022-09-12T03:59:53;4.30;;;3.90;;
19589;SDS011;12231;42.782;23.388;2022-09-12T04:02:18;6.28;;;4.00;;
19589;SDS011;12231;42.782;23.388;2022-09-12T04:04:44;4.45;;;4.03;;
19589;SDS011;12231;42.782;23.388;2022-09-12T04:07:13;5.55;;;4.45;;
19589;SDS011;12231;42.782;23.388;2022-09-12T04:09:39;4.78;;;4.32;;
19589;SDS011;12231;42.782;23.388;2022-09-12T04:12:05;5.28;;;4.78;;
19589;SDS011;12231;42.782;23.388;2022-09-12T04:14:31;4.72;;;4.25;;
19589;SDS011;12231;42.782;23.388;2022-09-12T04:16:57;7.78;;;4.55;;
19589;SDS011;12231;42.782;23.388;2022-09-12T04:19:23;5.85;;;4.88;;
19589;SDS011;12231;42.782;23.388;2022-09-12T04:21:49;5.00;;;4.50;;
19589;SDS011;12231;42.782;23.388;2022-09-12T04:24:15;4.93;;;4.45;;
19589;SDS011;12231;42.782;23.388;2022-09-12T04:26:40;7.90;;;5.65;;
19589;SDS011;12231;42.782;23.388;2022-09-12T04:29:06;6.68;;;5.97;;
19589;SDS011;12231;42.782;23.388;2022-09-12T04:31:31;5.55;;;5.05;;
19589;SDS011;12231;42.782;23.388;2022-09-12T04:33:58;4.97;;;4.47;;
19589;SDS011;12231;42.782;23.388;2022-09-12T04:36:25;5.80;;;4.35;;
19589;SDS011;12231;42.782;23.388;2022-09-12T04:38:52;6.13;;;4.38;;
19589;SDS011;12231;42.782;23.388;2022-09-12T04:43:46;5.55;;;4.97;;
19589;SDS011;12231;42.782;23.388;2022-09-12T04:46:13;4.22;;;3.83;;
19589;SDS011;12231;42.782;23.388;2022-09-12T04:48:41;5.57;;;4.10;;
19589;SDS011;12231;42.782;23.388;2022-09-12T04:53:37;4.03;;;3.58;;
19589;SDS011;12231;42.782;23.388;2022-09-12T04:56:04;4.53;;;4.13;;
19589;SDS011;12231;42.782;23.388;2022-09-12T04:58:31;4.78;;;4.30;;
19589;SDS011;12231;42.782;23.388;2022-09-12T05:01:07;4.53;;;3.90;;
19589;SDS011;12231;42.782;23.388;2022-09-12T05:03:43;3.90;;;3.60;;
19589;SDS011;12231;42.782;23.388;2022-09-12T05:06:11;5.10;;;4.60;;
19589;SDS011;12231;42.782;23.388;2022-09-12T05:08:39;4.57;;;4.18;;
19589;SDS011;12231;42.782;23.388;2022-09-12T05:11:06;7.18;;;4.70;;
19589;SDS011;12231;42.782;23.388;2022-09-12T05:13:34;6.40;;;4.50;;
19589;SDS011;12231;42.782;23.388;2022-09-12T05:16:01;4.63;;;3.20;;
19589;SDS011;12231;42.782;23.388;2022-09-12T05:18:30;3.78;;;3.42;;
19589;SDS011;12231;42.782;23.388;2022-09-12T05:20:57;4.45;;;3.97;;
19589;SDS011;12231;42.782;23.388;2022-09-12T05:23:24;3.75;;;3.35;;
19589;SDS011;12231;42.782;23.388;2022-09-12T05:25:50;3.90;;;3.60;;
19589;SDS011;12231;42.782;23.388;2022-09-12T05:28:17;3.65;;;3.35;;
19589;SDS011;12231;42.782;23.388;2022-09-12T05:30:44;3.80;;;3.50;;
19589;SDS011;12231;42.782;23.388;2022-09-12T05:33:10;7.18;;;3.80;;
19589;SDS011;12231;42.782;23.388;2022-09-12T05:35:36;4.03;;;3.63;;
19589;SDS011;12231;42.782;23.388;2022-09-12T05:38:02;3.67;;;3.38;;
19589;SDS011;12231;42.782;23.388;2022-09-12T05:40:32;4.00;;;3.60;;
19589;SDS011;12231;42.782;23.388;2022-09-12T05:42:58;4.88;;;3.90;;
19589;SDS011;12231;42.782;23.388;2022-09-12T05:45:23;3.92;;;3.50;;
19589;SDS011;12231;42.782;23.388;2022-09-12T05:47:49;3.60;;;3.30;;
19589;SDS011;12231;42.782;23.388;2022-09-12T05:50:14;3.65;;;3.33;;
19589;SDS011;12231;42.782;23.388;2022-09-12T05:52:40;3.60;;;3.30;;
19589;SDS011;12231;42.782;23.388;2022-09-12T05:55:06;4.15;;;3.83;;
19589;SDS011;12231;42.782;23.388;2022-09-12T05:57:31;4.22;;;3.50;;
19589;SDS011;12231;42.782;23.388;2022-09-12T05:59:57;4.18;;;3.78;;
19589;SDS011;12231;42.782;23.388;2022-09-12T06:02:23;4.72;;;3.92;;
19589;SDS011;12231;42.782;23.388;2022-09-12T06:04:48;4.43;;;3.88;;
19589;SDS011;12231;42.782;23.388;2022-09-12T06:07:13;3.90;;;3.50;;
19589;SDS011;12231;42.782;23.388;2022-09-12T06:09:39;4.88;;;4.47;;
19589;SDS011;12231;42.782;23.388;2022-09-12T06:12:04;4.22;;;3.83;;
19589;SDS011;12231;42.782;23.388;2022-09-12T06:14:31;4.78;;;4.22;;
19589;SDS011;12231;42.782;23.388;2022-09-12T06:16:57;4.15;;;3.08;;
19589;SDS011;12231;42.782;23.388;2022-09-12T06:19:23;3.60;;;3.30;;
19589;SDS011;12231;42.782;23.388;2022-09-12T06:21:49;3.55;;;3.28;;
19589;SDS011;12231;42.782;23.388;2022-09-12T06:24:18;3.80;;;3.50;;
19589;SDS011;12231;42.782;23.388;2022-09-12T06:26:44;3.83;;;3.13;;
19589;SDS011;12231;42.782;23.388;2022-09-12T06:29:11;3.33;;;3.13;;
19589;SDS011;12231;42.782;23.388;2022-09-12T06:31:38;3.50;;;3.20;;
19589;SDS011;12231;42.782;23.388;2022-09-12T06:34:07;3.65;;;3.35;;
19589;SDS011;12231;42.782;23.388;2022-09-12T06:36:38;3.47;;;3.17;;
19589;SDS011;12231;42.782;23.388;2022-09-12T06:39:09;3.55;;;3.25;;
19589;SDS011;12231;42.782;23.388;2022-09-12T06:41:37;3.50;;;3.20;;
19589;SDS011;12231;42.782;23.388;2022-09-12T06:44:02;3.65;;;3.45;;
19589;SDS011;12231;42.782;23.388;2022-09-12T06:46:28;3.33;;;3.13;;
19589;SDS011;12231;42.782;23.388;2022-09-12T06:48:55;3.55;;;3.25;;
19589;SDS011;12231;42.782;23.388;2022-09-12T06:51:21;3.33;;;3.13;;
19589;SDS011;12231;42.782;23.388;2022-09-12T06:53:47;3.42;;;3.15;;
19589;SDS011;12231;42.782;23.388;2022-09-12T06:56:15;3.30;;;3.00;;
19589;SDS011;12231;42.782;23.388;2022-09-12T06:58:46;4.05;;;3.75;;
19589;SDS011;12231;42.782;23.388;2022-09-12T07:01:23;3.33;;;2.78;;
19589;SDS011;12231;42.782;23.388;2022-09-12T07:03:55;3.63;;;3.33;;
19589;SDS011;12231;42.782;23.388;2022-09-12T07:06:23;3.15;;;2.95;;
19589;SDS011;12231;42.782;23.388;2022-09-12T07:08:53;3.22;;;3.03;;
19589;SDS011;12231;42.782;23.388;2022-09-12T07:11:20;3.35;;;3.10;;
19589;SDS011;12231;42.782;23.388;2022-09-12T07:13:48;3.63;;;3.00;;
19589;SDS011;12231;42.782;23.388;2022-09-12T07:16:17;2.92;;;2.72;;
19589;SDS011;12231;42.782;23.388;2022-09-12T07:18:43;2.60;;;2.40;;
19589;SDS011;12231;42.782;23.388;2022-09-12T07:21:10;3.85;;;3.55;;
19589;SDS011;12231;42.782;23.388;2022-09-12T07:23:37;2.83;;;2.63;;
19589;SDS011;12231;42.782;23.388;2022-09-12T07:26:04;2.65;;;2.45;;
19589;SDS011;12231;42.782;23.388;2022-09-12T07:28:30;2.78;;;2.58;;
19589;SDS011;12231;42.782;23.388;2022-09-12T07:30:57;2.55;;;2.35;;
19589;SDS011;12231;42.782;23.388;2022-09-12T07:33:24;2.70;;;2.50;;
19589;SDS011;12231;42.782;23.388;2022-09-12T07:35:51;3.20;;;2.40;;
19589;SDS011;12231;42.782;23.388;2022-09-12T07:38:18;2.95;;;2.58;;
19589;SDS011;12231;42.782;23.388;2022-09-12T07:40:44;2.90;;;2.70;;
19589;SDS011;12231;42.782;23.388;2022-09-12T07:43:10;2.58;;;2.38;;
19589;SDS011;12231;42.782;23.388;2022-09-12T07:45:35;2.83;;;2.63;;
19589;SDS011;12231;42.782;23.388;2022-09-12T07:48:01;2.60;;;2.40;;
19589;SDS011;12231;42.782;23.388;2022-09-12T07:50:27;2.72;;;2.58;;
19589;SDS011;12231;42.782;23.388;2022-09-12T07:52:53;2.90;;;2.70;;
19589;SDS011;12231;42.782;23.388;2022-09-12T07:55:19;2.60;;;2.40;;
19589;SDS011;12231;42.782;23.388;2022-09-12T07:57:48;2.15;;;2.05;;
19589;SDS011;12231;42.782;23.388;2022-09-12T08:00:14;2.88;;;2.67;;
19589;SDS011;12231;42.782;23.388;2022-09-12T08:02:41;2.97;;;2.78;;
19589;SDS011;12231;42.782;23.388;2022-09-12T08:05:06;2.95;;;2.55;;
19589;SDS011;12231;42.782;23.388;2022-09-12T08:07:32;2.90;;;2.70;;
19589;SDS011;12231;42.782;23.388;2022-09-12T08:09:58;2.70;;;2.50;;
19589;SDS011;12231;42.782;23.388;2022-09-12T08:12:24;2.75;;;2.55;;
19589;SDS011;12231;42.782;23.388;2022-09-12T08:14:51;2.78;;;2.60;;
19589;SDS011;12231;42.782;23.388;2022-09-12T08:17:16;3.00;;;2.80;;
19589;SDS011;12231;42.782;23.388;2022-09-12T08:19:42;3.25;;;3.05;;
19589;SDS011;12231;42.782;23.388;2022-09-12T08:22:08;3.65;;;3.35;;
19589;SDS011;12231;42.782;23.388;2022-09-12T08:24:35;2.80;;;2.60;;
19589;SDS011;12231;42.782;23.388;2022-09-12T08:27:00;3.45;;;3.15;;
19589;SDS011;12231;42.782;23.388;2022-09-12T08:29:26;3.20;;;2.92;;
19589;SDS011;12231;42.782;23.388;2022-09-12T08:31:51;3.78;;;3.38;;
19589;SDS011;12231;42.782;23.388;2022-09-12T08:34:17;3.83;;;3.53;;
19589;SDS011;12231;42.782;23.388;2022-09-12T08:36:43;2.95;;;2.75;;
19589;SDS011;12231;42.782;23.388;2022-09-12T08:39:11;3.10;;;2.80;;
19589;SDS011;12231;42.782;23.388;2022-09-12T08:41:39;3.10;;;2.90;;
19589;SDS011;12231;42.782;23.388;2022-09-12T08:49:28;3.08;;;2.85;;
19589;SDS011;12231;42.782;23.388;2022-09-12T08:51:58;2.83;;;2.67;;
19589;SDS011;12231;42.782;23.388;2022-09-12T08:54:36;3.42;;;3.13;;
19589;SDS011;12231;42.782;23.388;2022-09-12T08:57:03;3.40;;;3.10;;
19589;SDS011;12231;42.782;23.388;2022-09-12T08:59:33;3.15;;;2.85;;
19589;SDS011;12231;42.782;23.388;2022-09-12T09:02:02;2.80;;;2.60;;
19589;SDS011;12231;42.782;23.388;2022-09-12T09:04:46;2.92;;;2.72;;
19589;SDS011;12231;42.782;23.388;2022-09-12T09:15:22;2.88;;;2.67;;
19589;SDS011;12231;42.782;23.388;2022-09-12T09:18:28;2.90;;;2.70;;
19589;SDS011;12231;42.782;23.388;2022-09-12T09:24:09;3.40;;;3.10;;
19589;SDS011;12231;42.782;23.388;2022-09-12T09:26:39;3.15;;;2.95;;
19589;SDS011;12231;42.782;23.388;2022-09-12T09:29:16;3.25;;;3.00;;
19589;SDS011;12231;42.782;23.388;2022-09-12T09:31:46;3.30;;;3.00;;
19589;SDS011;12231;42.782;23.388;2022-09-12T09:34:19;3.05;;;2.80;;
19589;SDS011;12231;42.782;23.388;2022-09-12T09:44:42;3.50;;;3.20;;
19589;SDS011;12231;42.782;23.388;2022-09-12T09:47:11;3.85;;;3.55;;
19589;SDS011;12231;42.782;23.388;2022-09-12T09:49:36;3.13;;;2.92;;
19589;SDS011;12231;42.782;23.388;2022-09-12T09:52:03;3.53;;;3.28;;
19589;SDS011;12231;42.782;23.388;2022-09-12T09:57:31;4.20;;;3.80;;
19589;SDS011;12231;42.782;23.388;2022-09-12T10:00:20;3.88;;;3.58;;
19589;SDS011;12231;42.782;23.388;2022-09-12T10:05:52;4.85;;;3.70;;
19589;SDS011;12231;42.782;23.388;2022-09-12T10:08:20;3.13;;;2.92;;
19589;SDS011;12231;42.782;23.388;2022-09-12T10:13:23;3.58;;;3.28;;
19589;SDS011;12231;42.782;23.388;2022-09-12T10:15:59;4.32;;;3.00;;
19589;SDS011;12231;42.782;23.388;2022-09-12T10:18:40;3.55;;;3.25;;
19589;SDS011;12231;42.782;23.388;2022-09-12T10:21:40;3.47;;;3.20;;
19589;SDS011;12231;42.782;23.388;2022-09-12T10:26:55;3.15;;;2.95;;
19589;SDS011;12231;42.782;23.388;2022-09-12T10:29:40;3.50;;;3.20;;
19589;SDS011;12231;42.782;23.388;2022-09-12T10:32:09;3.78;;;3.00;;
19589;SDS011;12231;42.782;23.388;2022-09-12T10:34:38;3.83;;;2.97;;
19589;SDS011;12231;42.782;23.388;2022-09-12T10:37:08;3.30;;;3.10;;
19589;SDS011;12231;42.782;23.388;2022-09-12T10:39:42;3.95;;;2.63;;
19589;SDS011;12231;42.782;23.388;2022-09-12T10:42:17;2.90;;;2.70;;
19589;SDS011;12231;42.782;23.388;2022-09-12T10:47:53;3.17;;;2.97;;
19589;SDS011;12231;42.782;23.388;2022-09-12T10:52:52;3.97;;;3.70;;
19589;SDS011;12231;42.782;23.388;2022-09-12T10:55:21;6.28;;;3.60;;
19589;SDS011;12231;42.782;23.388;2022-09-12T10:58:02;4.05;;;3.75;;
19589;SDS011;12231;42.782;23.388;2022-09-12T11:00:45;3.90;;;3.60;;
19589;SDS011;12231;42.782;23.388;2022-09-12T11:03:15;4.47;;;4.07;;
19589;SDS011;12231;42.782;23.388;2022-09-12T11:05:50;4.18;;;3.67;;
19589;SDS011;12231;42.782;23.388;2022-09-12T11:16:52;4.45;;;4.15;;
19589;SDS011;12231;42.782;23.388;2022-09-12T11:19:41;5.45;;;4.20;;
19589;SDS011;12231;42.782;23.388;2022-09-12T11:30:47;3.88;;;3.50;;
19589;SDS011;12231;42.782;23.388;2022-09-12T11:36:06;3.95;;;3.58;;
19589;SDS011;12231;42.782;23.388;2022-09-12T11:38:46;4.28;;;3.92;;
19589;SDS011;12231;42.782;23.388;2022-09-12T11:41:18;3.90;;;3.60;;
19589;SDS011;12231;42.782;23.388;2022-09-12T11:46:20;3.90;;;3.60;;
19589;SDS011;12231;42.782;23.388;2022-09-12T11:48:54;4.10;;;3.20;;
19589;SDS011;12231;42.782;23.388;2022-09-12T11:51:31;3.38;;;3.17;;
19589;SDS011;12231;42.782;23.388;2022-09-12T11:54:11;3.83;;;3.47;;
19589;SDS011;12231;42.782;23.388;2022-09-12T11:57:04;3.30;;;3.00;;
19589;SDS011;12231;42.782;23.388;2022-09-12T12:02:27;3.13;;;2.85;;
19589;SDS011;12231;42.782;23.388;2022-09-12T12:08:04;3.80;;;3.03;;
19589;SDS011;12231;42.782;23.388;2022-09-12T12:15:47;3.58;;;3.28;;
19589;SDS011;12231;42.782;23.388;2022-09-12T12:18:21;3.55;;;3.25;;
19589;SDS011;12231;42.782;23.388;2022-09-12T12:20:52;3.38;;;3.17;;
19589;SDS011;12231;42.782;23.388;2022-09-12T12:23:29;3.50;;;3.28;;
19589;SDS011;12231;42.782;23.388;2022-09-12T12:25:58;3.60;;;3.38;;
19589;SDS011;12231;42.782;23.388;2022-09-12T12:28:58;3.72;;;3.45;;
19589;SDS011;12231;42.782;23.388;2022-09-12T12:31:16;3.60;;;3.30;;
19589;SDS011;12231;42.782;23.388;2022-09-12T12:36:08;3.88;;;3.58;;
19589;SDS011;12231;42.782;23.388;2022-09-12T12:38:36;3.63;;;3.42;;
19589;SDS011;12231;42.782;23.388;2022-09-12T12:43:41;3.58;;;3.38;;
19589;SDS011;12231;42.782;23.388;2022-09-12T12:46:08;3.40;;;3.10;;
19589;SDS011;12231;42.782;23.388;2022-09-12T12:48:42;3.80;;;3.50;;
19589;SDS011;12231;42.782;23.388;2022-09-12T12:51:34;3.35;;;3.15;;
19589;SDS011;12231;42.782;23.388;2022-09-12T12:57:05;4.03;;;3.75;;
19589;SDS011;12231;42.782;23.388;2022-09-12T13:00:01;4.20;;;3.90;;
19589;SDS011;12231;42.782;23.388;2022-09-12T13:02:31;4.25;;;3.92;;
19589;SDS011;12231;42.782;23.388;2022-09-12T13:05:01;3.38;;;3.17;;
19589;SDS011;12231;42.782;23.388;2022-09-12T13:07:34;3.75;;;3.55;;
19589;SDS011;12231;42.782;23.388;2022-09-12T13:10:03;3.70;;;3.40;;
19589;SDS011;12231;42.782;23.388;2022-09-12T13:12:42;3.83;;;3.63;;
19589;SDS011;12231;42.782;23.388;2022-09-12T13:15:56;3.63;;;3.42;;
19589;SDS011;12231;42.782;23.388;2022-09-12T13:18:06;4.10;;;3.80;;
19589;SDS011;12231;42.782;23.388;2022-09-12T13:20:50;5.18;;;3.92;;
19589;SDS011;12231;42.782;23.388;2022-09-12T13:23:37;3.72;;;3.45;;
19589;SDS011;12231;42.782;23.388;2022-09-12T13:26:07;3.60;;;3.40;;
19589;SDS011;12231;42.782;23.388;2022-09-12T13:28:36;3.88;;;3.55;;
19589;SDS011;12231;42.782;23.388;2022-09-12T13:33:46;3.90;;;3.60;;
19589;SDS011;12231;42.782;23.388;2022-09-12T13:36:30;3.80;;;3.45;;
19589;SDS011;12231;42.782;23.388;2022-09-12T13:39:20;4.55;;;4.25;;
19589;SDS011;12231;42.782;23.388;2022-09-12T13:47:20;3.90;;;3.60;;
19589;SDS011;12231;42.782;23.388;2022-09-12T13:49:51;3.80;;;3.58;;
19589;SDS011;12231;42.782;23.388;2022-09-12T13:52:19;4.07;;;3.67;;
19589;SDS011;12231;42.782;23.388;2022-09-12T13:54:49;4.50;;;4.18;;
19589;SDS011;12231;42.782;23.388;2022-09-12T13:57:54;4.50;;;4.10;;
19589;SDS011;12231;42.782;23.388;2022-09-12T14:00:19;4.30;;;3.90;;
19589;SDS011;12231;42.782;23.388;2022-09-12T14:02:46;4.07;;;3.67;;
19589;SDS011;12231;42.782;23.388;2022-09-12T14:05:16;3.60;;;3.40;;
19589;SDS011;12231;42.782;23.388;2022-09-12T14:07:51;3.80;;;3.50;;
19589;SDS011;12231;42.782;23.388;2022-09-12T14:10:27;3.65;;;3.40;;
19589;SDS011;12231;42.782;23.388;2022-09-12T14:12:56;3.90;;;3.60;;
19589;SDS011;12231;42.782;23.388;2022-09-12T14:15:27;3.83;;;3.53;;
19589;SDS011;12231;42.782;23.388;2022-09-12T14:17:56;4.40;;;4.10;;
19589;SDS011;12231;42.782;23.388;2022-09-12T14:20:31;4.20;;;3.80;;
19589;SDS011;12231;42.782;23.388;2022-09-12T14:23:02;4.40;;;3.60;;
19589;SDS011;12231;42.782;23.388;2022-09-12T14:25:37;4.40;;;4.10;;
19589;SDS011;12231;42.782;23.388;2022-09-12T14:28:05;5.15;;;3.78;;
19589;SDS011;12231;42.782;23.388;2022-09-12T14:30:36;3.80;;;3.50;;
19589;SDS011;12231;42.782;23.388;2022-09-12T14:33:15;4.50;;;3.70;;
19589;SDS011;12231;42.782;23.388;2022-09-12T14:35:50;4.03;;;3.70;;
19589;SDS011;12231;42.782;23.388;2022-09-12T14:38:24;4.55;;;4.25;;
19589;SDS011;12231;42.782;23.388;2022-09-12T14:41:00;4.00;;;3.70;;
19589;SDS011;12231;42.782;23.388;2022-09-12T14:43:30;4.35;;;4.05;;
19589;SDS011;12231;42.782;23.388;2022-09-12T14:46:02;4.35;;;4.05;;
19589;SDS011;12231;42.782;23.388;2022-09-12T14:48:32;6.28;;;4.40;;
19589;SDS011;12231;42.782;23.388;2022-09-12T14:51:00;4.53;;;4.13;;
19589;SDS011;12231;42.782;23.388;2022-09-12T14:53:31;4.63;;;4.22;;
19589;SDS011;12231;42.782;23.388;2022-09-12T14:56:07;3.85;;;3.60;;
19589;SDS011;12231;42.782;23.388;2022-09-12T14:58:36;4.35;;;4.05;;
19589;SDS011;12231;42.782;23.388;2022-09-12T15:03:32;3.95;;;3.67;;
19589;SDS011;12231;42.782;23.388;2022-09-12T15:06:00;4.22;;;3.92;;
19589;SDS011;12231;42.782;23.388;2022-09-12T15:08:27;4.32;;;4.03;;
19589;SDS011;12231;42.782;23.388;2022-09-12T15:10:54;3.72;;;3.53;;
19589;SDS011;12231;42.782;23.388;2022-09-12T15:13:21;4.13;;;3.83;;
19589;SDS011;12231;42.782;23.388;2022-09-12T15:15:58;4.72;;;4.35;;
19589;SDS011;12231;42.782;23.388;2022-09-12T15:18:24;4.32;;;3.92;;
19589;SDS011;12231;42.782;23.388;2022-09-12T15:21:00;4.25;;;3.95;;
19589;SDS011;12231;42.782;23.388;2022-09-12T15:23:41;4.55;;;4.15;;
19589;SDS011;12231;42.782;23.388;2022-09-12T15:26:09;3.97;;;3.67;;
19589;SDS011;12231;42.782;23.388;2022-09-12T15:28:36;4.28;;;3.88;;
19589;SDS011;12231;42.782;23.388;2022-09-12T15:31:04;4.45;;;4.15;;
19589;SDS011;12231;42.782;23.388;2022-09-12T15:33:50;4.03;;;3.72;;
19589;SDS011;12231;42.782;23.388;2022-09-12T15:36:17;4.25;;;3.95;;
19589;SDS011;12231;42.782;23.388;2022-09-12T15:38:45;4.35;;;3.97;;
19589;SDS011;12231;42.782;23.388;2022-09-12T15:41:21;4.40;;;3.83;;
19589;SDS011;12231;42.782;23.388;2022-09-12T15:43:55;5.18;;;4.22;;
19589;SDS011;12231;42.782;23.388;2022-09-12T15:46:21;6.03;;;4.70;;
19589;SDS011;12231;42.782;23.388;2022-09-12T15:48:46;4.47;;;4.07;;
19589;SDS011;12231;42.782;23.388;2022-09-12T15:51:13;5.22;;;4.63;;
19589;SDS011;12231;42.782;23.388;2022-09-12T15:53:40;4.38;;;3.88;;
19589;SDS011;12231;42.782;23.388;2022-09-12T15:56:06;4.50;;;4.10;;
19589;SDS011;12231;42.782;23.388;2022-09-12T15:58:32;4.22;;;3.83;;
19589;SDS011;12231;42.782;23.388;2022-09-12T16:00:57;4.22;;;3.92;;
19589;SDS011;12231;42.782;23.388;2022-09-12T16:03:26;4.00;;;3.70;;
19589;SDS011;12231;42.782;23.388;2022-09-12T16:05:57;4.28;;;3.95;;
19589;SDS011;12231;42.782;23.388;2022-09-12T16:08:24;4.50;;;4.15;;
19589;SDS011;12231;42.782;23.388;2022-09-12T16:10:52;4.45;;;3.65;;
19589;SDS011;12231;42.782;23.388;2022-09-12T16:13:20;4.45;;;4.05;;
19589;SDS011;12231;42.782;23.388;2022-09-12T16:15:46;4.70;;;4.30;;
19589;SDS011;12231;42.782;23.388;2022-09-12T16:18:12;4.35;;;4.05;;
19589;SDS011;12231;42.782;23.388;2022-09-12T16:20:38;4.63;;;4.30;;
19589;SDS011;12231;42.782;23.388;2022-09-12T16:23:04;4.53;;;4.22;;
19589;SDS011;12231;42.782;23.388;2022-09-12T16:25:30;4.72;;;4.32;;
19589;SDS011;12231;42.782;23.388;2022-09-12T16:27:55;4.00;;;3.70;;
19589;SDS011;12231;42.782;23.388;2022-09-12T16:30:21;4.90;;;4.50;;
19589;SDS011;12231;42.782;23.388;2022-09-12T16:32:46;4.20;;;3.90;;
19589;SDS011;12231;42.782;23.388;2022-09-12T16:35:12;4.80;;;3.63;;
19589;SDS011;12231;42.782;23.388;2022-09-12T16:37:37;4.10;;;3.80;;
19589;SDS011;12231;42.782;23.388;2022-09-12T16:40:03;4.72;;;4.32;;
19589;SDS011;12231;42.782;23.388;2022-09-12T16:42:29;4.85;;;4.45;;
19589;SDS011;12231;42.782;23.388;2022-09-12T16:44:55;4.70;;;4.30;;
19589;SDS011;12231;42.782;23.388;2022-09-12T16:47:21;4.85;;;4.35;;
19589;SDS011;12231;42.782;23.388;2022-09-12T16:49:47;6.32;;;4.28;;
19589;SDS011;12231;42.782;23.388;2022-09-12T16:52:12;4.90;;;4.50;;
19589;SDS011;12231;42.782;23.388;2022-09-12T16:54:40;4.65;;;4.25;;
19589;SDS011;12231;42.782;23.388;2022-09-12T16:57:07;5.00;;;4.60;;
19589;SDS011;12231;42.782;23.388;2022-09-12T16:59:33;4.13;;;3.83;;
19589;SDS011;12231;42.782;23.388;2022-09-12T17:01:58;4.63;;;4.20;;
19589;SDS011;12231;42.782;23.388;2022-09-12T17:04:24;4.47;;;4.07;;
19589;SDS011;12231;42.782;23.388;2022-09-12T17:06:49;4.47;;;4.07;;
19589;SDS011;12231;42.782;23.388;2022-09-12T17:09:15;5.03;;;4.63;;
19589;SDS011;12231;42.782;23.388;2022-09-12T17:11:43;4.18;;;3.88;;
19589;SDS011;12231;42.782;23.388;2022-09-12T17:14:09;4.70;;;4.30;;
19589;SDS011;12231;42.782;23.388;2022-09-12T17:16:36;4.88;;;4.47;;
19589;SDS011;12231;42.782;23.388;2022-09-12T17:19:04;4.90;;;4.50;;
19589;SDS011;12231;42.782;23.388;2022-09-12T17:21:31;5.18;;;4.68;;
19589;SDS011;12231;42.782;23.388;2022-09-12T17:23:56;4.82;;;4.43;;
19589;SDS011;12231;42.782;23.388;2022-09-12T17:26:23;5.95;;;4.57;;